Terminal Aerodrome Forecast
Issued by NWS

Home | Current Version | Previous Version | Text Only | Print | Product List | Glossary On
Versions: 1 2 3 4 5 6 7 8 9 10 11 12 13 14 15 16 17
617
FTUS42 KFFC 271743
TAFFTY
TAF
KFTY 271743Z 2718/2818 01005KT 6SM -SHRA BKN035 OVC060
      TEMPO 2718/2722 VRB12KT 3SM SHRA BKN025
     FM272200 11006KT 5SM -SHRA BKN030
     FM280200 11006KT 6SM BR BKN025
     FM280800 12005KT 5SM BR BKN006
     FM281400 14007KT P6SM BKN012
     FM281700 15010KT P6SM VCSH BKN025=

USA.gov is the U.S. government's official web portal to all federal, state and local government web resources and services.